Time;durP1;ratioP1;P1;durP2;ratioP2;P2;SDS_P1;SDS_P2;PMS_P1;PMS_P2;Temp;Humidity;BMP_temperature;BMP_pressure;BME280_temperature;BME280_humidity;BME280_pressure;Samples;Min_cycle;Max_cycle;Signal;HPM_P1;HPM_P2
2022/11/16 00:02:06;;;;;;;5.53;2.17;;;10.00;99.90;;;10.13;100.00;99127.94;4926908;28;20317;-78
2022/11/16 00:04:34;;;;;;;5.07;2.20;;;10.00;99.90;;;10.11;100.00;99124.44;4928104;28;20291;-78
2022/11/16 00:07:04;;;;;;;4.15;1.70;;;10.00;99.90;;;10.12;100.00;99128.81;4915948;29;20257;-77
2022/11/16 00:09:32;;;;;;;5.32;2.10;;;10.00;99.90;;;10.11;100.00;99123.56;4931206;28;20666;-77
2022/11/16 00:12:03;;;;;;;5.55;2.35;;;10.00;99.90;;;10.10;100.00;99122.69;4922925;28;20234;-78
2022/11/16 00:14:33;;;;;;;6.05;2.70;;;10.00;99.90;;;10.12;100.00;99123.53;4926099;28;20286;-80
2022/11/16 00:17:02;;;;;;;3.85;1.75;;;10.00;99.90;;;10.11;100.00;99121.78;4943684;28;20264;-81
2022/11/16 00:19:29;;;;;;;3.92;2.10;;;10.00;99.90;;;10.12;100.00;99118.25;4930877;28;20230;-80
2022/11/16 00:21:57;;;;;;;2.10;1.13;;;10.00;99.90;;;10.12;100.00;99109.47;4925227;28;20313;-79
2022/11/16 00:24:24;;;;;;;5.78;2.53;;;10.00;99.90;;;10.13;100.00;99116.50;4930379;28;20226;-79
2022/11/16 00:26:55;;;;;;;3.03;1.42;;;10.00;99.90;;;10.11;100.00;99115.63;4931542;28;20241;-78
2022/11/16 00:29:24;;;;;;;3.83;1.90;;;10.00;99.90;;;10.12;100.00;99112.09;4929805;28;20246;-78
2022/11/16 00:31:52;;;;;;;2.78;1.55;;;10.00;99.90;;;10.11;100.00;99108.59;4934496;28;20757;-78
2022/11/16 00:34:21;;;;;;;2.13;1.02;;;10.00;99.90;;;10.10;100.00;99109.47;4935054;28;20234;-77
2022/11/16 00:36:48;;;;;;;2.40;1.10;;;10.00;99.90;;;10.11;100.00;99103.31;4931680;28;20318;-78
2022/11/16 00:39:16;;;;;;;2.10;1.10;;;10.00;99.90;;;10.08;100.00;99097.19;4934864;28;20325;-77
2022/11/16 00:41:44;;;;;;;3.42;2.08;;;10.00;99.90;;;10.07;100.00;99101.59;4926715;28;20275;-80
2022/11/16 00:44:11;;;;;;;1.02;0.60;;;10.00;99.90;;;10.09;100.00;99109.50;4939309;28;20262;-79
2022/11/16 00:46:39;;;;;;;1.52;0.90;;;10.00;99.90;;;10.05;100.00;99103.38;4926002;28;20685;-80
2022/11/16 00:49:06;;;;;;;4.20;2.00;;;10.00;99.90;;;10.06;100.00;99098.97;4934245;28;20230;-80
2022/11/16 00:51:35;;;;;;;1.20;0.60;;;10.00;99.90;;;10.05;100.00;99103.38;4926498;28;20299;-78
2022/11/16 00:54:05;;;;;;;1.25;0.80;;;10.00;99.90;;;10.07;100.00;99100.72;4923229;29;20259;-79
2022/11/16 00:56:32;;;;;;;1.92;0.93;;;10.00;99.90;;;10.08;100.00;99100.69;4929498;28;20325;-81
2022/11/16 00:58:59;;;;;;;2.97;1.90;;;10.00;99.90;;;10.07;100.00;99096.31;4922119;28;20239;-80
2022/11/16 01:01:26;;;;;;;1.90;1.02;;;10.00;99.90;;;10.12;100.00;99104.19;4926170;28;20276;-79
2022/11/16 01:03:54;;;;;;;2.22;1.20;;;10.00;99.90;;;10.14;100.00;99102.41;4929973;28;20230;-81
2022/11/16 01:06:22;;;;;;;2.00;1.13;;;10.10;99.90;;;10.11;100.00;99100.66;4929995;28;20253;-79
2022/11/16 01:08:49;;;;;;;3.90;1.98;;;10.00;99.90;;;10.13;100.00;99100.66;4922955;28;20250;-79
2022/11/16 01:14:06;;;;;;;3.25;1.83;;;10.00;99.90;;;10.16;100.00;99111.19;4931564;28;20309;-80
2022/11/16 01:16:34;;;;;;;3.05;1.50;;;10.10;99.90;;;10.19;100.00;99113.78;4920423;28;20226;-79
2022/11/16 01:19:02;;;;;;;2.47;1.42;;;10.10;99.90;;;10.20;100.00;99112.94;4929884;28;20258;-80
2022/11/16 01:21:29;;;;;;;5.53;2.50;;;10.10;99.90;;;10.20;100.00;99111.16;4927831;28;20258;-80
2022/11/16 01:23:56;;;;;;;3.13;1.48;;;10.10;99.90;;;10.22;100.00;99108.50;4933296;28;20278;-80
2022/11/16 01:26:24;;;;;;;2.70;1.10;;;10.10;99.90;;;10.22;100.00;99105.88;4930932;28;20244;-80
2022/11/16 01:28:51;;;;;;;2.92;1.45;;;10.10;99.90;;;10.19;100.00;99112.03;4929732;28;20309;-81
2022/11/16 01:31:18;;;;;;;3.67;1.75;;;10.10;99.90;;;10.21;100.00;99107.63;4927133;28;20262;-82
2022/11/16 01:33:45;;;;;;;3.40;1.67;;;10.10;99.90;;;10.19;100.00;99104.09;4933153;28;20325;-80
2022/11/16 01:36:13;;;;;;;4.13;2.05;;;10.10;99.90;;;10.21;100.00;99109.41;4929460;28;20250;-80
2022/11/16 01:38:45;;;;;;;2.30;1.20;;;10.10;99.90;;;10.21;100.00;99109.41;4935890;28;20238;-79
2022/11/16 01:41:19;;;;;;;3.83;1.88;;;10.10;99.90;;;10.21;100.00;99107.63;4931423;28;20234;-78
2022/11/16 01:43:58;;;;;;;1.90;0.90;;;10.10;99.90;;;10.22;100.00;99112.03;4928232;28;20235;-79
2022/11/16 01:46:27;;;;;;;2.45;1.27;;;10.10;99.90;;;10.24;100.00;99109.38;4932524;28;20281;-79
2022/11/16 01:49:05;;;;;;;2.08;1.00;;;10.10;99.90;;;10.25;100.00;99111.13;4930600;29;20250;-80
2022/11/16 01:51:33;;;;;;;1.77;1.00;;;10.20;99.90;;;10.25;100.00;99108.47;4930007;28;20321;-80
2022/11/16 01:54:05;;;;;;;3.67;1.70;;;10.20;99.90;;;10.25;100.00;99111.13;4925459;29;20230;-80
2022/11/16 01:56:35;;;;;;;2.03;1.10;;;10.20;99.90;;;10.25;100.00;99111.13;4930326;28;20386;-80
2022/11/16 01:59:02;;;;;;;2.22;1.20;;;10.20;99.90;;;10.24;100.00;99112.88;4914779;28;20637;-80
2022/11/16 02:01:29;;;;;;;3.55;1.67;;;10.20;99.90;;;10.24;100.00;99112.88;4928888;28;20290;-80
2022/11/16 02:03:56;;;;;;;1.85;0.85;;;10.20;99.90;;;10.26;100.00;99118.16;4925495;28;20610;-80
2022/11/16 02:06:26;;;;;;;2.25;1.13;;;10.20;99.90;;;10.25;100.00;99112.00;4932707;28;20249;-82
2022/11/16 02:12:30;;;;;;;2.63;1.58;;;10.20;99.90;;;10.25;100.00;99119.91;4929419;28;20265;-82
2022/11/16 02:15:35;;;;;;;3.45;1.80;;;10.20;99.90;;;10.25;100.00;99117.28;4925488;28;20789;-79
2022/11/16 02:18:29;;;;;;;2.38;1.27;;;10.20;99.90;;;10.25;100.00;99116.41;4927759;28;20275;-79
2022/11/16 02:21:33;;;;;;;3.65;1.98;;;10.10;99.90;;;10.24;100.00;99123.44;4926503;28;20225;-78
2022/11/16 02:24:26;;;;;;;3.83;1.70;;;10.20;99.90;;;10.25;100.00;99119.91;4927877;28;20253;-78
2022/11/16 02:27:25;;;;;;;2.30;1.25;;;10.20;99.90;;;10.24;100.00;99126.09;4927586;28;20669;-79
2022/11/16 02:29:53;;;;;;;2.42;1.10;;;10.10;99.90;;;10.22;100.00;99122.59;4926145;29;20262;-77
2022/11/16 02:32:35;;;;;;;6.57;3.22;;;10.20;99.90;;;10.23;100.00;99126.09;4927370;28;20301;-77
2022/11/16 02:35:18;;;;;;;1.98;1.00;;;10.20;99.90;;;10.24;100.00;99125.22;4924483;29;20321;-78
2022/11/16 02:38:12;;;;;;;2.13;1.08;;;10.20;99.90;;;10.22;100.00;99108.50;4908913;29;20254;-77
2022/11/16 02:40:45;;;;;;;1.88;1.02;;;10.10;99.90;;;10.21;100.00;99112.91;4915272;29;20322;-79
2022/11/16 02:43:22;;;;;;;2.58;1.27;;;10.10;99.90;;;10.20;100.00;99105.88;4918688;28;20238;-80
2022/11/16 02:45:53;;;;;;;3.20;1.63;;;10.10;99.90;;;10.20;100.00;99110.28;4926698;28;20304;-79
2022/11/16 02:48:45;;;;;;;2.72;1.20;;;10.10;99.90;;;10.20;100.00;99107.66;4925128;28;20698;-79
2022/11/16 02:51:26;;;;;;;6.32;3.00;;;10.10;99.90;;;10.19;100.00;99103.22;4925086;28;20290;-82
2022/11/16 02:54:19;;;;;;;2.67;1.20;;;10.10;99.90;;;10.17;100.00;99100.59;4928595;28;20225;-81
2022/11/16 02:57:25;;;;;;;2.97;1.27;;;10.10;99.90;;;10.14;100.00;99089.19;4911249;28;20691;-79
2022/11/16 02:59:57;;;;;;;3.75;1.60;;;10.10;99.90;;;10.14;100.00;99090.06;4931710;28;20238;-81
2022/11/16 03:02:43;;;;;;;4.05;2.03;;;10.10;99.90;;;10.15;100.00;99088.28;4924607;29;20298;-80
2022/11/16 04:02:33;;;;;;;12.18;5.53;;;10.00;99.90;;;10.04;100.00;99111.31;4927046;28;20269;-77
2022/11/16 04:25:13;;;;;;;1.02;0.90;;;9.90;99.90;;;9.98;100.00;99138.66;4934197;28;20300;-79
2022/11/16 04:37:47;;;;;;;5.28;2.38;;;9.90;99.90;;;9.98;100.00;99153.63;4930845;28;20258;-79
2022/11/16 04:38:46;;;;;;;3.80;1.58;;;9.90;99.90;;;9.98;100.00;99158.91;4916703;28;20294;-79
2022/11/16 04:43:58;;;;;;;4.05;1.70;;;9.90;99.90;;;9.99;100.00;99163.28;4931732;28;20234;-79
2022/11/16 04:49:11;;;;;;;3.83;1.70;;;9.90;99.90;;;9.99;100.00;99168.56;4932471;28;20258;-79
2022/11/16 04:51:38;;;;;;;3.05;1.38;;;9.90;99.90;;;10.00;100.00;99167.69;4932271;29;20258;-79
2022/11/16 04:54:05;;;;;;;3.13;1.60;;;9.90;99.90;;;10.00;100.00;99162.41;4933640;28;20254;-79
2022/11/16 04:56:32;;;;;;;3.58;1.67;;;9.90;99.90;;;9.99;100.00;99155.38;4933419;28;20242;-82
2022/11/16 04:58:59;;;;;;;2.55;1.30;;;9.90;99.90;;;9.98;100.00;99165.06;4933976;29;20244;-79
2022/11/16 05:04:12;;;;;;;6.03;2.45;;;9.90;99.90;;;9.98;100.00;99164.19;4927401;28;20297;-81
2022/11/16 05:06:39;;;;;;;6.75;2.83;;;9.90;99.90;;;9.97;100.00;99162.44;4927341;28;20234;-81
2022/11/16 05:09:06;;;;;;;3.83;1.90;;;9.90;99.90;;;9.97;100.00;99158.03;4928912;28;20230;-81
2022/11/16 05:11:33;;;;;;;4.40;1.80;;;9.90;99.90;;;9.99;100.00;99156.25;4931376;28;20238;-80
2022/11/16 05:14:01;;;;;;;6.78;2.60;;;9.90;99.90;;;9.98;100.00;99158.91;4924804;28;20230;-77
2022/11/16 05:16:28;;;;;;;5.95;2.55;;;9.90;99.90;;;10.00;100.00;99162.41;4924204;28;20231;-81
2022/11/16 05:21:40;;;;;;;3.58;1.80;;;9.90;99.90;;;10.01;100.00;99172.06;4928451;28;20384;-81
2022/11/16 05:26:53;;;;;;;3.50;1.60;;;9.90;99.90;;;10.02;100.00;99177.34;4927382;28;20309;-79
2022/11/16 05:29:20;;;;;;;4.07;1.75;;;9.90;99.90;;;10.03;100.00;99180.88;4929901;28;20305;-79
2022/11/16 05:31:47;;;;;;;3.55;2.13;;;9.90;99.90;;;10.05;100.00;99177.31;4928991;28;20293;-79
2022/11/16 05:34:14;;;;;;;4.95;2.15;;;10.00;99.90;;;10.07;100.00;99182.59;4939653;28;20890;-79
2022/11/16 05:36:41;;;;;;;5.35;2.22;;;10.00;99.90;;;10.07;100.00;99178.19;4931951;28;20278;-77
2022/11/16 05:39:10;;;;;;;4.07;1.83;;;10.00;99.90;;;10.06;100.00;99175.56;4921935;29;20246;-80
2022/11/16 05:41:37;;;;;;;3.80;1.70;;;10.00;99.90;;;10.06;100.00;99179.06;4925004;28;20329;-79
2022/11/16 05:44:05;;;;;;;2.75;1.20;;;10.00;99.90;;;10.05;100.00;99174.69;4943290;28;20303;-80
2022/11/16 05:46:32;;;;;;;3.33;1.85;;;10.00;99.90;;;10.01;100.00;99174.72;4931049;28;20735;-79
2022/11/16 05:48:59;;;;;;;6.95;2.97;;;9.90;99.90;;;9.98;100.00;99172.97;4929262;28;20334;-80
2022/11/16 05:51:26;;;;;;;4.13;1.80;;;9.90;99.90;;;9.91;100.00;99172.16;4924969;28;20246;-77
2022/11/16 05:53:53;;;;;;;4.20;1.65;;;9.80;99.90;;;9.84;100.00;99175.75;4921144;28;20234;-78
2022/11/16 05:56:20;;;;;;;4.13;1.75;;;9.80;99.90;;;9.83;100.00;99181.91;4913281;28;20245;-78
2022/11/16 05:58:47;;;;;;;3.20;1.42;;;9.80;99.90;;;9.86;100.00;99192.44;4928955;28;20230;-77
2022/11/16 06:01:14;;;;;;;6.55;2.67;;;9.80;99.90;;;9.87;100.00;99180.13;4915624;28;20676;-77
2022/11/16 06:03:41;;;;;;;5.13;2.03;;;9.80;99.90;;;9.83;100.00;99183.66;4913080;28;20314;-77
2022/11/16 06:06:08;;;;;;;3.95;1.65;;;9.70;99.90;;;9.83;100.00;99183.66;4923217;29;20231;-77
2022/11/16 06:08:35;;;;;;;5.50;2.20;;;9.70;99.90;;;9.78;100.00;99180.19;4925235;28;20227;-78
2022/11/16 06:11:06;;;;;;;5.50;2.17;;;9.70;99.90;;;9.80;100.00;99184.56;4926694;28;20750;-81
2022/11/16 06:13:33;;;;;;;2.05;1.02;;;9.70;99.90;;;9.80;100.00;99188.97;4932949;28;20242;-81
2022/11/16 06:16:01;;;;;;;3.50;1.50;;;9.70;99.90;;;9.78;100.00;99186.34;4931906;28;20234;-80
2022/11/16 06:18:29;;;;;;;2.90;1.45;;;9.70;99.90;;;9.78;100.00;99180.19;4931795;28;20245;-79
2022/11/16 06:20:56;;;;;;;5.30;1.85;;;9.70;99.90;;;9.76;100.00;99184.59;4925129;29;20240;-79
2022/11/16 06:23:23;;;;;;;5.97;2.03;;;9.70;99.90;;;9.81;100.00;99188.97;4916319;28;20227;-80
2022/11/16 06:25:54;;;;;;;6.90;2.45;;;9.70;99.90;;;9.74;100.00;99186.38;4924210;28;20261;-80
2022/11/16 06:28:22;;;;;;;6.15;1.90;;;9.60;99.90;;;9.64;100.00;99177.66;4913180;28;20258;-79
2022/11/16 06:30:50;;;;;;;6.78;2.75;;;;;;;9.58;100.00;99173.31;4913728;28;20239;-79
2022/11/16 06:33:18;;;;;;;6.65;2.40;;;9.40;99.90;;;9.51;100.00;99173.34;4924433;28;20313;-79
2022/11/16 06:35:45;;;;;;;4.45;1.65;;;9.40;99.90;;;9.46;100.00;99176.03;4934947;28;20230;-78
2022/11/16 06:38:17;;;;;;;4.97;1.90;;;9.40;99.90;;;9.41;100.00;99184.84;4920500;29;20234;-77
2022/11/16 06:40:54;;;;;;;3.80;1.50;;;9.40;99.90;;;9.33;100.00;99184.91;4937182;28;20250;-78
2022/11/16 06:43:22;;;;;;;5.82;2.13;;;9.30;99.90;;;9.34;100.00;99191.94;4936302;28;20264;-77
2022/11/16 06:45:55;;;;;;;5.18;1.88;;;9.30;99.90;;;9.31;100.00;99194.59;4936971;28;20274;-77
2022/11/16 06:48:22;;;;;;;6.53;2.40;;;9.20;99.90;;;9.39;100.00;99205.09;4937222;28;20234;-77
2022/11/16 06:50:51;;;;;;;5.25;1.85;;;9.30;99.90;;;9.43;100.00;99212.97;4937200;28;20257;-78
2022/11/16 06:53:19;;;;;;;5.53;1.88;;;9.30;99.90;;;9.42;100.00;99213.00;4936751;28;20262;-77
2022/11/16 06:55:53;;;;;;;5.22;2.00;;;9.30;99.90;;;9.37;100.00;99206.88;4936974;28;20230;-78
2022/11/16 06:58:20;;;;;;;5.63;1.90;;;9.30;99.90;;;9.39;100.00;99202.47;4937177;28;20233;-78
2022/11/16 07:00:47;;;;;;;5.30;1.83;;;9.30;99.90;;;9.41;100.00;99208.59;4936781;28;20751;-78
2022/11/16 07:03:14;;;;;;;4.35;1.60;;;9.30;99.90;;;9.35;100.00;99195.44;4936634;28;20258;-78
2022/11/16 07:05:41;;;;;;;5.07;1.80;;;9.30;99.90;;;9.27;100.00;99192.84;4936451;28;20258;-78
2022/11/16 07:08:08;;;;;;;4.13;1.70;;;9.20;99.90;;;9.20;100.00;99199.94;4935668;28;20272;-78
2022/11/16 07:10:37;;;;;;;3.97;1.48;;;9.10;99.90;;;9.33;100.00;99206.00;4935595;28;20238;-77
2022/11/16 07:13:04;;;;;;;4.25;1.50;;;9.20;99.90;;;9.42;100.00;99220.91;4936012;28;20238;-78
2022/11/16 07:15:32;;;;;;;4.15;1.48;;;9.30;99.90;;;9.42;100.00;99215.63;4916223;29;20254;-77
2022/11/16 07:18:06;;;;;;;4.15;1.67;;;9.30;99.90;;;9.46;100.00;99220.88;4917474;29;20322;-78
2022/11/16 07:20:34;;;;;;;2.45;1.02;;;9.40;99.90;;;9.42;100.00;99218.28;4917254;29;20669;-77
2022/11/16 07:23:02;;;;;;;5.15;1.77;;;9.30;99.90;;;9.41;100.00;99224.44;4917052;29;20305;-77
2022/11/16 07:25:32;;;;;;;4.75;1.75;;;9.30;99.90;;;9.42;100.00;99229.69;4916963;29;20322;-78
2022/11/16 07:27:59;;;;;;;3.55;1.30;;;9.40;99.90;;;9.52;100.00;99239.31;4916857;29;20335;-77
2022/11/16 07:30:26;;;;;;;5.07;1.73;;;9.40;99.90;;;9.58;100.00;99254.25;4916821;29;20243;-77
2022/11/16 07:41:29;;;;;;;3.60;1.45;;;9.60;99.90;;;9.75;100.00;99260.28;4927715;28;20262;-80
2022/11/16 07:43:56;;;;;;;4.93;1.73;;;9.70;99.90;;;9.76;100.00;99271.72;4920035;28;20235;-79
2022/11/16 07:46:23;;;;;;;5.03;1.77;;;9.70;99.90;;;9.75;100.00;99273.50;4929640;28;20285;-79
2022/11/16 07:49:15;;;;;;;2.72;1.13;;;9.70;99.90;;;9.79;100.00;99271.72;4932149;28;20608;-79
2022/11/16 07:51:42;;;;;;;3.85;1.42;;;9.70;99.90;;;9.80;100.00;99269.06;4907673;29;20300;-79
2022/11/16 07:54:12;;;;;;;4.95;1.88;;;9.70;99.90;;;9.77;100.00;99269.06;4921114;29;20266;-79
2022/11/16 07:56:40;;;;;;;2.83;1.13;;;9.70;99.90;;;9.83;100.00;99269.03;4932214;28;20258;-80
2022/11/16 07:59:07;;;;;;;4.13;1.63;;;9.70;99.90;;;9.87;100.00;99270.78;4931017;28;20234;-80
2022/11/16 08:01:34;;;;;;;3.25;1.35;;;9.70;99.90;;;9.82;100.00;99271.69;4930055;28;20238;-79
2022/11/16 08:04:02;;;;;;;5.80;2.42;;;9.70;99.90;;;9.76;100.00;99263.81;4929004;28;20313;-80
2022/11/16 08:06:31;;;;;;;6.20;1.92;;;9.60;99.90;;;9.71;100.00;99269.13;4930909;28;20239;-79
2022/11/16 08:08:58;;;;;;;4.85;1.77;;;9.60;99.90;;;9.57;100.00;99261.28;4935874;28;20250;-79
2022/11/16 08:11:25;;;;;;;6.80;2.15;;;9.50;99.90;;;9.60;100.00;99255.09;4927446;28;20306;-80
2022/11/16 08:13:52;;;;;;;4.95;1.80;;;9.50;99.90;;;9.62;100.00;99266.53;4924260;28;20236;-79
2022/11/16 08:16:21;;;;;;;5.68;1.95;;;9.50;99.90;;;9.66;100.00;99267.38;4934185;28;20250;-79
2022/11/16 08:18:49;;;;;;;4.18;1.67;;;9.50;99.90;;;9.68;100.00;99274.41;4929955;28;20699;-79
2022/11/16 08:21:18;;;;;;;6.88;2.30;;;9.60;99.90;;;9.70;100.00;99279.69;4933224;28;20251;-80
2022/11/16 08:23:45;;;;;;;5.53;2.05;;;9.60;99.90;;;9.74;100.00;99282.28;4926031;28;20237;-79
2022/11/16 08:26:18;;;;;;;4.63;1.80;;;9.60;99.90;;;9.80;100.00;99281.38;4933949;28;20234;-78
2022/11/16 08:28:49;;;;;;;6.45;2.30;;;9.70;99.90;;;9.80;100.00;99282.25;4927756;28;20267;-80
2022/11/16 08:31:23;;;;;;;6.35;2.28;;;9.70;99.90;;;9.89;100.00;99284.84;4929000;28;20268;-79
2022/11/16 08:33:50;;;;;;;6.95;2.50;;;9.70;99.90;;;9.85;100.00;99290.16;4931506;29;20230;-79
2022/11/16 08:36:18;;;;;;;3.97;1.50;;;9.70;99.90;;;9.81;100.00;99286.66;4937214;28;20305;-80
2022/11/16 08:38:47;;;;;;;4.05;1.55;;;9.70;99.90;;;9.81;100.00;99280.50;4937472;28;20231;-79
2022/11/16 08:41:16;;;;;;;7.30;2.53;;;9.70;99.90;;;9.80;100.00;99284.91;4925230;28;20648;-79
2022/11/16 08:43:45;;;;;;;5.65;1.95;;;9.70;99.90;;;9.83;100.00;99281.34;4920101;29;20234;-79
2022/11/16 08:46:13;;;;;;;7.18;2.45;;;9.70;99.90;;;9.80;100.00;99276.97;4922029;28;20238;-78
2022/11/16 08:48:41;;;;;;;5.07;1.70;;;9.70;99.90;;;9.87;100.00;99283.97;4923035;28;20268;-78
2022/11/16 08:51:16;;;;;;;11.38;3.65;;;9.80;99.90;;;9.94;100.00;99285.69;4917573;29;20231;-79
2022/11/16 08:53:46;;;;;;;5.40;1.88;;;9.80;99.90;;;9.97;100.00;99286.56;4920939;28;20334;-79
2022/11/16 08:56:16;;;;;;;4.13;1.50;;;9.80;99.90;;;10.01;100.00;99283.88;4915862;28;20239;-79
2022/11/16 08:58:46;;;;;;;6.88;2.35;;;9.90;99.90;;;10.05;100.00;99290.00;4915173;28;20231;-78
2022/11/16 09:01:21;;;;;;;6.47;2.25;;;9.90;99.90;;;10.13;100.00;99302.28;4919281;28;20297;-79
2022/11/16 09:03:49;;;;;;;6.35;2.17;;;10.00;99.90;;;10.21;100.00;99300.50;4917138;28;20235;-77
2022/11/16 09:06:16;;;;;;;5.05;1.83;;;10.10;99.90;;;10.23;100.00;99298.72;4913797;28;20695;-79
2022/11/16 09:08:45;;;;;;;3.90;1.48;;;10.10;99.90;;;10.33;100.00;99307.44;4928736;28;20234;-79
2022/11/16 09:11:18;;;;;;;7.82;3.22;;;10.20;99.90;;;10.36;100.00;99293.31;4923452;29;20262;-79
2022/11/16 09:13:47;;;;;;;5.07;1.80;;;10.30;99.90;;;10.37;100.00;99289.78;4936630;28;20257;-79
2022/11/16 09:16:15;;;;;;;3.75;1.38;;;10.30;99.90;;;10.36;100.00;99283.63;4923428;29;20227;-79
2022/11/16 09:18:47;;;;;;;4.95;1.73;;;10.30;99.90;;;10.42;100.00;99274.81;4920056;28;20294;-79
2022/11/16 09:21:24;;;;;;;8.98;2.92;;;10.40;99.90;;;10.50;100.00;99267.69;4929674;28;20238;-79
2022/11/16 09:23:53;;;;;;;5.75;2.08;;;10.40;99.90;;;10.50;100.00;99260.63;4926511;28;20241;-80
2022/11/16 09:26:21;;;;;;;6.70;2.22;;;10.40;99.90;;;10.53;100.00;99257.09;4929497;28;20279;-79
2022/11/16 09:28:55;;;;;;;6.25;2.00;;;10.40;99.90;;;10.54;100.00;99246.50;4937027;28;20317;-80
2022/11/16 09:31:26;;;;;;;5.72;1.90;;;10.40;99.90;;;10.66;100.00;99252.56;4924498;28;20297;-79
2022/11/16 09:33:57;;;;;;;7.68;2.50;;;10.50;99.90;;;10.64;100.00;99252.56;4931408;28;20234;-79
2022/11/16 09:36:27;;;;;;;4.43;1.40;;;10.50;99.90;;;10.74;100.00;99245.41;4938048;28;20230;-80
2022/11/16 09:38:54;;;;;;;2.80;1.00;;;10.60;99.90;;;10.84;100.00;99250.59;4935678;28;20364;-79
2022/11/16 09:42:24;;;;;;;3.03;1.10;;;10.70;99.90;;;11.13;100.00;99260.84;4920948;28;20238;-80
2022/11/16 09:44:51;;;;;;;5.07;1.90;;;10.90;99.90;;;11.27;100.00;99260.66;4936383;28;20234;-79
2022/11/16 09:47:22;;;;;;;4.28;1.27;;;11.10;99.90;;;11.29;100.00;99260.66;4934772;28;20235;-79
2022/11/16 09:49:59;;;;;;;4.13;1.50;;;11.10;99.90;;;11.38;100.00;99263.16;4917985;28;20263;-79
2022/11/16 09:52:43;;;;;;;5.68;1.85;;;11.20;99.90;;;11.28;100.00;99254.47;4918360;28;20262;-80
2022/11/16 09:55:55;;;;;;;1.45;0.52;;;11.10;99.90;;;11.36;100.00;99249.09;4918431;28;20238;-80
2022/11/16 09:59:01;;;;;;;3.65;1.30;;;11.20;99.90;;;11.35;100.00;99244.69;4912818;28;20261;-80
2022/11/16 10:01:38;;;;;;;3.92;1.35;;;11.20;99.90;;;11.41;100.00;99244.59;4927637;28;20251;-79
2022/11/16 10:04:20;;;;;;;4.20;1.45;;;11.20;99.90;;;11.48;100.00;99247.16;4915090;29;20234;-80
2022/11/16 10:07:08;;;;;;;6.93;2.20;;;11.30;99.90;;;11.47;100.00;99239.22;4929909;28;20257;-80
2022/11/16 10:09:35;;;;;;;4.28;1.48;;;11.30;99.90;;;11.51;100.00;99248.88;4933270;28;20285;-80
2022/11/16 10:12:27;;;;;;;5.38;1.90;;;11.30;99.90;;;11.46;100.00;99234.81;4905855;29;20231;-80
2022/11/16 10:14:56;;;;;;;3.63;1.25;;;11.30;99.90;;;11.39;100.00;99234.03;4931650;28;20257;-80
2022/11/16 10:18:03;;;;;;;5.60;1.83;;;11.30;99.90;;;11.46;100.00;99234.81;4915552;28;20265;-79
2022/11/16 10:20:57;;;;;;;6.55;2.00;;;11.30;99.90;;;11.52;100.00;99240.91;4926020;28;20640;-80
2022/11/16 10:24:20;;;;;;;6.50;1.95;;;11.40;99.90;;;12.01;100.00;99276.47;4937059;28;20234;-80
2022/11/16 10:27:18;;;;;;;4.07;1.52;;;11.60;99.90;;;12.06;100.00;99256.06;4934067;28;20317;-80
2022/11/16 10:29:57;;;;;;;3.67;1.30;;;;;;;12.14;100.00;99256.81;4929572;28;20239;-79
2022/11/16 10:32:38;;;;;;;6.80;2.13;;;11.90;99.90;;;12.38;100.00;99252.91;4927963;28;20245;-80
2022/11/16 10:35:10;;;;;;;5.72;1.90;;;12.10;99.90;;;12.80;100.00;99260.06;4936939;28;20237;-79
2022/11/16 10:37:48;;;;;;;4.95;1.70;;;12.40;99.90;;;12.49;100.00;99201.44;4940297;28;20249;-79
2022/11/16 10:40:37;;;;;;;6.22;1.92;;;12.40;99.90;;;12.44;100.00;99194.47;4924924;28;20233;-79
2022/11/16 10:43:16;;;;;;;5.40;1.77;;;12.30;99.90;;;12.28;100.00;99147.94;4925763;28;20238;-79
2022/11/16 10:46:17;;;;;;;6.20;2.00;;;12.20;99.90;;;12.17;100.00;99140.16;4927874;28;20230;-78
2022/11/16 10:49:21;;;;;;;6.75;2.22;;;12.10;99.90;;;12.26;100.00;99131.19;4930566;28;20249;-79
2022/11/16 10:51:48;;;;;;;5.80;1.98;;;12.10;99.90;;;12.50;100.00;99147.50;4926639;28;20233;-79
2022/11/16 10:54:17;;;;;;;7.20;2.28;;;12.30;99.90;;;12.73;100.00;99155.00;4920701;28;20241;-78
2022/11/16 10:56:51;;;;;;;6.28;2.08;;;12.50;99.90;;;12.80;100.00;99129.22;4923121;28;20247;-80
2022/11/16 10:59:18;;;;;;;7.10;2.38;;;12.60;99.90;;;13.01;100.00;99144.72;4930649;28;20261;-80
2022/11/16 11:01:53;;;;;;;5.72;1.90;;;12.70;99.90;;;13.10;100.00;99131.25;4930507;28;20706;-79
2022/11/16 11:04:25;;;;;;;5.40;1.80;;;12.90;99.90;;;13.23;100.00;99126.56;4930329;28;20225;-79
2022/11/16 11:06:58;;;;;;;6.50;2.25;;;13.00;99.90;;;13.26;100.00;99128.28;4930623;28;20313;-79
2022/11/16 11:09:35;;;;;;;7.10;2.33;;;13.10;99.90;;;13.53;100.00;99134.72;4930781;28;20234;-79
2022/11/16 11:12:37;;;;;;;4.75;1.52;;;13.30;99.90;;;13.15;98.20;99064.78;4927460;28;20699;-80
2022/11/16 11:15:10;;;;;;;4.60;1.75;;;13.10;99.90;;;13.08;98.14;99056.09;4930826;28;20270;-80
2022/11/16 11:17:46;;;;;;;5.90;2.17;;;13.00;99.90;;;13.06;97.88;99054.38;4916025;28;20254;-77
2022/11/16 11:20:16;;;;;;;5.85;2.08;;;12.90;99.90;;;13.00;98.22;99051.84;4929670;28;20319;-78
2022/11/16 11:22:59;;;;;;;7.20;2.25;;;12.90;99.90;;;12.78;98.63;99047.00;4932027;28;20226;-78
2022/11/16 11:25:40;;;;;;;5.68;1.98;;;12.70;99.90;;;12.71;98.71;99040.09;4920907;28;20234;-78
2022/11/16 11:28:45;;;;;;;5.20;1.83;;;12.60;99.90;;;12.81;100.00;99075.25;4930942;29;20258;-78
2022/11/16 11:31:32;;;;;;;5.45;1.90;;;12.60;99.90;;;12.92;100.00;99072.38;4906987;29;20233;-78
2022/11/16 11:34:23;;;;;;;6.07;2.20;;;12.70;99.90;;;13.36;100.00;99124.50;4911787;28;20234;-78
2022/11/16 11:37:02;;;;;;;7.93;2.70;;;13.00;99.90;;;13.75;99.36;99126.22;4931499;29;20525;-78
2022/11/16 11:39:35;;;;;;;7.32;2.33;;;13.40;99.90;;;13.58;96.26;99056.69;4933457;28;20615;-80
2022/11/16 11:42:12;;;;;;;9.43;2.58;;;13.40;99.90;;;13.76;95.02;99053.56;4929778;28;20242;-80
2022/11/16 11:44:53;;;;;;;6.68;2.35;;;13.50;99.90;;;13.64;92.81;98999.88;4936653;28;20370;-84
2022/11/16 11:47:44;;;;;;;9.38;3.22;;;13.50;99.90;;;13.75;94.24;99030.56;4931379;28;20232;-80
2022/11/16 11:50:47;;;;;;;6.35;2.17;;;13.50;99.90;;;13.84;93.61;99028.56;4926500;29;20692;-79
2022/11/16 11:53:56;;;;;;;7.75;2.72;;;13.60;99.90;;;13.90;93.58;99012.47;4922759;28;20254;-80
2022/11/16 11:56:25;;;;;;;6.78;2.33;;;13.80;99.90;;;13.98;91.57;99000.72;4928669;28;20324;-81
2022/11/16 11:58:53;;;;;;;5.28;1.75;;;13.90;99.90;;;13.97;90.44;98969.75;4934596;28;20253;-81
2022/11/16 12:01:43;;;;;;;7.22;2.35;;;13.80;99.90;;;13.96;91.93;98986.59;4934417;28;20262;-80
2022/11/16 12:04:42;;;;;;;6.05;2.05;;;13.90;99.90;;;13.94;91.04;98968.94;4937449;28;20270;-81
2022/11/16 12:07:51;;;;;;;5.57;2.05;;;13.90;99.90;;;13.92;92.46;98976.09;4932269;28;20257;-81
2022/11/16 12:10:39;;;;;;;5.97;2.25;;;13.80;99.90;;;13.81;93.49;98984.38;4924397;28;20258;-80
2022/11/16 12:13:29;;;;;;;5.93;2.08;;;13.70;99.90;;;14.49;93.13;99048.09;4904429;28;20656;-81
2022/11/16 12:16:44;;;;;;;8.35;3.70;;;14.10;99.90;;;14.90;89.23;99000.72;4927717;28;20321;-81
2022/11/16 12:19:55;;;;;;;5.07;2.00;;;14.60;99.90;;;14.92;86.33;98933.22;4922475;29;20234;-80
2022/11/16 12:23:14;;;;;;;10.80;3.58;;;14.80;99.90;;;14.41;85.82;98858.56;4929084;28;20291;-82
2022/11/16 12:26:14;;;;;;;5.25;1.98;;;14.50;99.90;;;14.81;86.23;98916.72;4918776;29;20254;-80
2022/11/16 12:28:56;;;;;;;6.38;2.17;;;14.60;99.90;;;14.85;85.93;98913.06;4918834;28;20231;-80
2022/11/16 12:31:41;;;;;;;10.05;3.67;;;14.60;99.90;;;14.97;83.86;98880.72;4924102;28;20230;-82
2022/11/16 12:34:59;;;;;;;6.10;2.38;;;14.80;99.90;;;14.77;82.90;98811.31;4934839;28;20261;-79
2022/11/16 12:37:43;;;;;;;5.68;2.20;;;14.90;99.90;;;14.28;82.12;98758.81;4947635;28;20257;-80
2022/11/16 12:40:24;;;;;;;5.03;1.83;;;14.30;99.90;;;14.19;81.53;98729.88;4919714;29;20265;-81
2022/11/16 12:43:23;;;;;;;5.57;2.05;;;14.20;99.90;;;14.23;80.51;98727.06;4935064;28;20265;-81
2022/11/16 12:46:12;;;;;;;6.00;2.17;;;14.10;99.90;;;14.17;81.72;98756.50;4919798;29;20263;-80